Latest Weather Observations for Douglas River

IDD60801

Issued at 1:02 pm CST Friday 27 March 2015 (issued every 30 minutes, with the page automatically refreshed every 10 minutes)

About weather observations | Map of weather stations | Latest weather observations for NT | Other Formats
Station Details ID: 014901 Name: DOUGLAS RIVER Lat: -13.83 Lon: 131.19 Height: 42.8 m
Data from the previous 72 hours. | See also: Recent months at Douglas River
Date/Time
CST
Temp
°C
App
Temp
°C
Dew
Point
Rel
Hum
%
Delta-T
°C
Wind Press
QNH
hPa
Press
MSL
hPa
Rain
since 9 am
mm
Dir
 
Spd
km/h
Gust
km/h
Spd
kts
Gust
kts
27/01:00pm 30.6 35.6 24.5 70 4.3 NE 6 11 3 6 1013.4 1013.1 0.0
27/12:30pm 30.1 35.2 24.7 73 3.8 NNE 6 9 3 5 1013.7 1013.4 0.0
27/12:00pm 29.2 34.1 24.6 76 3.2 ENE 7 11 4 6 1014.0 1013.7 0.0
27/11:30am 28.8 33.7 24.3 76 3.1 NE 6 9 3 5 1014.6 1014.3 0.0
27/11:00am 28.2 34.2 24.8 82 2.4 E 2 7 1 4 1015.0 1014.7 0.0
27/10:30am 27.3 33.2 24.7 86 1.8 N 2 7 1 4 1015.3 1015.0 0.0
27/10:00am 26.1 31.7 24.2 89 1.3 WNW 2 6 1 3 1015.6 1015.3 0.0
27/09:30am 25.5 31.5 24.3 93 0.8 CALM 0 0 0 0 1015.8 1015.5 0.0
27/09:00am 24.9 30.7 23.9 94 0.7 CALM 0 0 0 0 1015.9 1015.6 3.4
27/08:30am 24.4 30.1 23.7 96 0.5 CALM 0 0 0 0 1016.0 1015.7 3.4
27/08:00am 24.0 29.5 23.4 96 0.4 CALM 0 0 0 0 1015.7 1015.4 3.4
27/07:30am 23.8 29.3 23.4 98 0.3 CALM 0 0 0 0 1015.2 1014.9 3.4
27/07:00am 23.6 29.0 23.3 98 0.2 CALM 0 0 0 0 1014.7 1014.4 3.4
27/06:30am 23.6 27.7 23.3 98 0.2 SE 7 9 4 5 1014.2 1013.9 3.4
27/06:00am 23.6 28.6 23.2 98 0.3 ESE 2 6 1 3 1014.1 1013.8 3.4
27/05:30am 23.6 27.7 23.2 98 0.3 ESE 7 9 4 5 1013.7 1013.4 3.4
27/05:00am 23.6 27.8 23.2 98 0.3 SE 6 7 3 4 1013.5 1013.2 3.4
27/04:30am 23.6 27.3 23.2 98 0.3 ESE 9 11 5 6 1013.4 1013.1 3.4
27/04:00am 23.7 27.4 23.3 98 0.3 ESE 9 15 5 8 1013.4 1013.1 3.2
27/03:30am 23.7 27.1 23.3 98 0.3 ESE 11 13 6 7 1013.7 1013.4 3.2
27/03:00am 23.8 28.0 23.4 98 0.3 ESE 7 9 4 5 1013.8 1013.5 3.2
27/02:30am 23.9 29.5 23.5 98 0.3 CALM 0 0 0 0 1013.7 1013.4 2.4
27/02:00am 24.1 29.2 23.4 96 0.5 ENE 2 6 1 3 1014.0 1013.7 1.6
27/01:30am 24.2 28.5 23.3 95 0.6 NE 6 11 3 6 1014.3 1014.0 1.6
27/01:00am 24.6 28.8 23.1 91 1.0 NE 6 11 3 6 1014.3 1014.0 1.6
27/12:30am 24.9 28.3 23.3 91 1.1 ENE 11 20 6 11 1014.6 1014.3 1.6
27/12:00am 25.1 27.4 23.5 91 1.1 E 17 26 9 14 1015.0 1014.7 1.4
 
Date/Time
CST
Temp
°C
App
Temp
°C
Dew
Point
Rel
Hum
%
Delta-T
°C
Wind Press
QNH
hPa
Press
MSL
hPa
Rain
since 9 am
mm
Dir
 
Spd
km/h
Gust
km/h
Spd
kts
Gust
kts
26/11:30pm 25.3 27.8 23.8 91 1.0 E 17 20 9 11 1015.1 1014.8 1.4
26/11:00pm 25.1 28.5 24.1 94 0.7 ESE 13 17 7 9 1015.1 1014.8 1.4
26/10:30pm 25.0 28.8 24.0 94 0.7 E 11 15 6 8 1014.9 1014.6 1.4
26/10:00pm 24.8 29.0 24.1 96 0.5 ESE 9 11 5 6 1014.7 1014.4 1.4
26/09:30pm 24.8 29.6 24.4 98 0.3 ESE 7 9 4 5 1014.2 1013.9 1.4
26/09:00pm 24.9 29.2 24.2 96 0.5 ESE 9 15 5 8 1013.5 1013.2 1.4
26/08:30pm 25.6 28.5 23.9 90 1.2 ESE 15 22 8 12 1013.2 1012.9 1.2
26/08:00pm 25.9 28.5 23.9 89 1.4 SE 17 24 9 13 1013.0 1012.7 1.2
26/07:30pm 26.9 30.7 24.7 88 1.5 SE 13 19 7 10 1012.4 1012.1 1.2
26/07:00pm 27.8 34.4 25.2 86 1.8 CALM 0 0 0 0 1011.7 1011.4 1.2
26/06:30pm 28.4 35.1 25.4 84 2.1 CALM 0 0 0 0 1011.7 1011.4 1.2
26/06:00pm 29.3 35.9 25.2 78 2.9 CALM 0 0 0 0 1011.1 1010.8 1.2
26/05:30pm 29.1 35.4 25.3 80 2.7 ENE 2 7 1 4 1010.4 1010.1 1.2
26/05:00pm 28.4 34.5 25.0 82 2.4 NE 2 6 1 3 1009.7 1009.4 1.2
26/04:30pm 27.5 32.3 24.2 82 2.3 NNE 6 9 3 5 1009.4 1009.1 1.0
26/04:00pm 26.9 31.7 24.5 87 1.7 NNW 7 13 4 7 1010.0 1009.7 1.0
26/03:30pm 27.9 32.4 24.6 82 2.3 N 9 17 5 9 1010.1 1009.8 0.8
26/03:00pm 33.2 37.0 22.8 54 7.2 NE 7 13 4 7 1009.5 1009.2 0.6
26/02:30pm 32.7 36.1 23.3 57 6.5 E 11 20 6 11 1009.7 1009.4 0.6
26/02:00pm 33.1 36.9 23.5 57 6.7 ENE 9 13 5 7 1010.0 1009.7 0.6
26/01:30pm 32.1 36.0 23.6 60 5.9 NE 9 17 5 9 1010.7 1010.4 0.6
26/01:00pm 31.9 36.1 23.4 60 5.9 NNE 7 17 4 9 1011.3 1011.0 0.6
26/12:30pm 31.2 36.0 24.5 67 4.7 NE 7 17 4 9 1011.9 1011.6 0.6
26/12:00pm 29.5 34.0 23.9 72 3.9 NE 7 11 4 6 1012.4 1012.1 0.6
26/11:30am 29.3 33.7 23.8 72 3.8 ENE 7 13 4 7 1013.0 1012.7 0.0
26/11:00am 30.5 34.8 24.3 69 4.3 ENE 9 17 5 9 1013.2 1012.9 0.0
26/10:30am 28.9 32.7 24.1 75 3.3 ENE 11 20 6 11 1013.6 1013.3 0.0
26/10:00am 28.4 32.2 24.1 77 3.0 ENE 11 22 6 12 1013.5 1013.2 0.0
26/09:30am 28.0 32.0 24.4 81 2.5 ENE 11 24 6 13 1013.1 1012.8 0.0
26/09:00am 26.6 31.0 24.4 88 1.5 ENE 9 17 5 9 1013.0 1012.7 5.4
26/08:30am 25.6 30.5 24.4 93 0.8 ENE 6 11 3 6 1012.8 1012.5 5.4
26/08:00am 24.8 30.8 24.2 96 0.4 CALM 0 4 0 2 1012.6 1012.3 5.4
26/07:30am 24.3 30.1 23.9 98 0.3 CALM 0 0 0 0 1012.2 1011.9 5.4
26/07:00am 24.1 29.8 23.7 98 0.3 CALM 0 0 0 0 1011.7 1011.4 5.4
26/06:30am 24.0 29.6 23.6 98 0.3 CALM 0 2 0 1 1011.4 1011.1 5.4
26/06:00am 24.0 29.2 23.6 98 0.3 NE 2 6 1 3 1011.3 1011.0 5.4
26/05:30am 24.1 28.9 23.5 96 0.4 ENE 4 6 2 3 1011.0 1010.7 5.4
26/05:00am 24.2 28.7 23.6 96 0.4 NE 6 7 3 4 1010.4 1010.1 5.4
26/04:30am 24.2 29.4 23.6 96 0.4 NE 2 7 1 4 1010.3 1010.0 5.4
26/04:00am 24.2 29.6 23.8 98 0.3 NE 2 6 1 3 1010.1 1009.8 5.4
26/03:30am 24.1 29.8 23.7 98 0.3 CALM 0 0 0 0 1009.9 1009.6 5.4
26/03:00am 24.1 29.8 23.7 98 0.3 CALM 0 6 0 3 1010.1 1009.8 5.4
26/02:30am 24.3 29.7 23.9 98 0.3 NE 2 6 1 3 1010.4 1010.1 5.4
26/02:00am 24.3 30.1 23.9 98 0.3 CALM 0 0 0 0 1010.8 1010.5 5.4
26/01:30am 24.5 30.4 24.1 98 0.3 CALM 0 6 0 3 1010.7 1010.4 5.4
26/01:00am 24.7 30.6 24.1 96 0.4 CALM 0 0 0 0 1010.6 1010.3 5.4
26/12:30am 24.9 30.5 24.3 96 0.4 NE 2 6 1 3 1011.1 1010.8 5.4
26/12:00am 25.0 30.5 24.6 98 0.3 NNE 4 9 2 5 1011.5 1011.2 5.4
 
Date/Time
CST
Temp
°C
App
Temp
°C
Dew
Point
Rel
Hum
%
Delta-T
°C
Wind Press
QNH
hPa
Press
MSL
hPa
Rain
since 9 am
mm
Dir
 
Spd
km/h
Gust
km/h
Spd
kts
Gust
kts
25/11:30pm 25.1 31.2 24.5 96 0.4 CALM 0 0 0 0 1011.4 1011.1 5.4
25/11:00pm 25.1 30.9 24.5 96 0.4 NNE 2 6 1 3 1011.0 1010.7 5.4
25/10:30pm 25.2 31.4 24.6 96 0.4 CALM 0 0 0 0 1011.0 1010.7 5.2
25/10:00pm 25.3 31.6 24.7 96 0.4 CALM 0 0 0 0 1010.5 1010.2 5.2
25/09:30pm 25.3 31.6 24.7 96 0.4 CALM 0 0 0 0 1010.5 1010.2 5.2
25/09:00pm 25.3 31.6 24.7 96 0.4 CALM 0 0 0 0 1010.1 1009.8 5.0
25/08:30pm 25.2 31.3 24.5 96 0.5 CALM 0 0 0 0 1009.9 1009.6 5.0
25/08:00pm 25.2 31.4 24.6 96 0.4 CALM 0 0 0 0 1009.7 1009.4 5.0
25/07:30pm 25.3 31.5 24.6 96 0.5 CALM 0 6 0 3 1009.6 1009.3 5.0
25/07:00pm 25.6 30.9 25.0 96 0.4 WSW 6 9 3 5 1009.2 1008.9 4.8
25/06:30pm 26.1 32.4 24.8 92 0.9 CALM 0 0 0 0 1008.7 1008.4 4.4
25/06:00pm 26.6 31.4 24.1 86 1.7 NE 6 9 3 5 1008.2 1007.9 4.2
25/05:30pm 27.6 32.5 24.4 83 2.2 NNE 6 9 3 5 1007.9 1007.6 4.2
25/05:00pm 27.6 32.2 24.1 81 2.4 NE 7 15 4 8 1007.6 1007.3 4.2
25/04:30pm 28.3 33.2 25.2 83 2.2 NE 9 17 5 9 1007.2 1006.9 4.2
25/04:00pm 27.8 32.9 24.9 84 2.0 NE 7 17 4 9 1007.3 1007.0 4.2
25/03:30pm 27.2 32.8 25.4 90 1.3 NE 6 9 3 5 1007.2 1006.9 4.2
25/03:00pm 26.0 31.7 25.0 94 0.7 NE 4 9 2 5 1007.4 1007.1 4.2
25/02:30pm 27.4 32.5 24.7 85 1.9 WSW 6 9 3 5 1007.4 1007.1 1.6
25/02:00pm 26.1 28.4 24.1 89 1.4 E 19 26 10 14 1007.8 1007.5 1.6
25/01:30pm 27.0 31.3 24.3 85 1.9 SE 9 15 5 8 1008.2 1007.9 1.6
25/01:00pm 28.2 31.4 24.9 82 2.3 SE 17 22 9 12 1008.6 1008.3 1.4
25/12:30pm 26.4 28.8 24.2 88 1.5 E 19 28 10 15 1009.2 1008.9 0.8
25/12:00pm 26.5 30.4 25.4 94 0.8 ESE 15 20 8 11 1009.7 1009.4 0.8
25/11:30am 25.0 26.8 23.5 91 1.0 SE 20 30 11 16 1010.1 1009.8 0.2
25/11:00am 26.1 27.9 23.3 84 1.9 SSE 19 24 10 13 1010.2 1009.9 0.2
25/10:30am 26.5 28.6 23.7 84 1.9 ESE 19 26 10 14 1010.4 1010.1 0.2
25/10:00am 25.2 27.6 23.7 91 1.0 SE 17 20 9 11 1010.5 1010.2 0.2
25/09:30am 24.2 26.9 23.5 96 0.5 SE 15 22 8 12 1010.6 1010.3 0.2
25/09:00am 24.0 25.4 22.8 93 0.8 SE 20 28 11 15 1010.4 1010.1 0.0
25/08:30am 23.9 25.0 22.3 91 1.1 SE 20 28 11 15 1010.2 1009.9 0.0
25/08:00am 23.7 25.3 22.2 91 1.0 SE 17 24 9 13 1009.8 1009.5 0.0
25/07:30am 23.4 24.3 21.9 91 1.0 SE 20 30 11 16 1009.4 1009.1 0.0
25/07:00am 23.7 24.5 21.7 88 1.3 SE 20 30 11 16 1009.1 1008.8 0.0
25/06:30am 23.9 25.2 21.6 87 1.5 SE 17 22 9 12 1008.8 1008.5 0.0
25/06:00am 23.7 25.0 21.7 88 1.3 SE 17 28 9 15 1008.7 1008.4 0.0
25/05:30am 23.3 24.7 21.8 91 1.0 SSE 17 24 9 13 1008.2 1007.9 0.0
25/05:00am 23.4 24.2 21.7 90 1.1 SSE 20 28 11 15 1008.2 1007.9 0.0
25/04:30am 24.1 24.7 21.4 85 1.8 SE 20 28 11 15 1008.2 1007.9 0.0
25/04:00am 23.7 24.0 21.6 88 1.4 SE 22 35 12 19 1008.4 1008.1 0.0
25/03:30am 24.2 24.0 21.2 83 2.0 SSE 24 32 13 17 1008.4 1008.1 0.0
25/03:00am 24.2 25.0 20.7 81 2.3 SE 17 26 9 14 1008.8 1008.5 0.0
25/02:30am 24.3 24.6 20.5 79 2.5 SE 19 32 10 17 1008.9 1008.6 0.0
25/02:00am 24.1 24.2 20.4 80 2.4 SE 20 32 11 17 1009.0 1008.7 0.0
25/01:30am 24.0 24.6 20.3 80 2.4 SSE 17 24 9 13 1009.2 1008.9 0.0
25/01:00am 24.1 24.7 20.3 79 2.5 S 17 24 9 13 1009.9 1009.6 0.0
25/12:30am 24.1 25.6 20.6 81 2.3 S 13 17 7 9 1010.2 1009.9 0.0
25/12:00am 24.3 26.0 21.0 82 2.2 SSE 13 20 7 11 1010.4 1010.1 0.0
 
Date/Time
CST
Temp
°C
App
Temp
°C
Dew
Point
Rel
Hum
%
Delta-T
°C
Wind Press
QNH
hPa
Press
MSL
hPa
Rain
since 9 am
mm
Dir
 
Spd
km/h
Gust
km/h
Spd
kts
Gust
kts
24/11:30pm 24.3 25.4 20.5 79 2.5 S 15 22 8 12 1010.8 1010.5 0.0
24/11:00pm 25.1 24.4 18.3 66 4.3 SSE 19 24 10 13 1011.0 1010.7 0.0
24/10:30pm 25.9 22.8 16.5 56 5.8 SE 28 44 15 24 1011.4 1011.1 0.0
24/10:00pm 26.1 22.6 17.5 59 5.4 ESE 32 41 17 22 1011.7 1011.4 0.0
24/09:32pm 26.3 24.5 19.5 66 4.4 SE 28 46 15 25 1011.3 - 0.0
24/09:31pm 26.3 24.5 19.5 66 4.4 SE 28 46 15 25 1011.4 1011.1 0.0
24/09:30pm 26.3 24.9 19.7 67 4.3 SE 26 41 14 22 1011.4 1011.1 0.0
24/09:00pm 26.7 24.9 19.6 65 4.6 ESE 28 41 15 22 1010.9 1010.6 0.0
24/08:30pm 27.3 24.7 19.4 62 5.1 ESE 32 41 17 22 1010.6 1010.3 0.0
24/08:23pm 27.9 25.8 18.9 58 5.8 ESE 28 43 15 23 1010.2 - 0.0
24/08:22pm 27.9 25.8 18.9 58 5.8 ESE 28 43 15 23 1010.3 1010.0 0.0
24/08:00pm 27.5 28.0 19.3 61 5.3 E 15 20 8 11 1009.6 1009.3 0.0
24/07:30pm 28.0 28.2 19.4 59 5.6 ENE 17 26 9 14 1009.1 1008.8 0.0
24/07:00pm 28.4 28.2 19.7 59 5.7 E 20 28 11 15 1008.8 1008.5 0.0
24/06:30pm 28.9 28.6 20.3 59 5.7 ESE 22 28 12 15 1008.3 1008.0 0.0
24/06:00pm 29.1 28.4 21.0 61 5.4 ESE 26 35 14 19 1008.0 1007.7 0.0
24/05:30pm 29.0 28.1 20.6 60 5.6 ESE 26 37 14 20 1007.4 1007.1 0.0
24/05:00pm 29.0 26.6 19.0 54 6.5 ESE 30 39 16 21 1007.4 1007.1 0.0
24/04:30pm 28.0 26.6 18.9 57 5.9 ESE 24 37 13 20 1007.1 1006.8 0.0
24/04:01pm 27.8 25.5 20.2 63 5.0 E 32 54 17 29 1007.8 1007.5 0.0
24/04:00pm 27.8 25.7 20.5 64 4.8 E 32 54 17 29 1007.8 1007.5 0.0
24/03:49pm 31.5 28.2 18.0 44 8.7 ESE 32 52 17 28 1007.2 - 0.0
24/03:48pm 31.5 28.2 18.0 44 8.7 ESE 32 52 17 28 1007.3 1007.0 0.0
24/03:30pm 31.3 29.9 18.7 47 8.2 ESE 24 33 13 18 1007.3 1007.0 0.0
24/03:00pm 30.9 29.9 18.9 48 7.8 ESE 22 32 12 17 1007.5 1007.2 0.0
24/02:30pm 32.2 31.9 19.6 47 8.3 SE 20 30 11 16 1007.7 1007.4 0.0
24/02:00pm 32.1 30.4 19.0 45 8.6 ESE 26 37 14 20 1007.9 1007.6 0.0
24/01:30pm 31.9 28.9 18.7 45 8.6 ESE 32 44 17 24 1008.3 1008.0 0.0

Other Formats:

Comma delimited format used in spreadsheet applications
http://www.bom.gov.au/fwo/IDD60801/IDD60801.94128.axf

JavaScript Object Notation format (JSON) in row-major order
http://www.bom.gov.au/fwo/IDD60801/IDD60801.94128.json